Time;durP1;ratioP1;P1;durP2;ratioP2;P2;SDS_P1;SDS_P2;PMS_P1;PMS_P2;Temp;Humidity;BMP_temperature;BMP_pressure;BME280_temperature;BME280_humidity;BME280_pressure;Samples;Min_cycle;Max_cycle;Signal;HPM_P1;HPM_P2
2023/10/16 00:00:42;;;;;;;2.60;1.20;;;;;;;7.90;100.00;97039.22;5062192;28;20640;-54
2023/10/16 00:03:12;;;;;;;3.13;1.37;;;;;;;7.79;100.00;97041.88;5056981;28;20238;-57
2023/10/16 00:05:44;;;;;;;3.97;1.40;;;;;;;7.86;100.00;97034.34;5062666;28;20261;-56
2023/10/16 00:08:16;;;;;;;2.73;1.90;;;;;;;7.74;100.00;97030.84;5062478;28;20195;-57
2023/10/16 00:10:43;;;;;;;3.73;1.10;;;;;;;7.74;100.00;97037.88;5061274;28;20238;-56
2023/10/16 00:13:11;;;;;;;3.17;1.37;;;;;;;7.68;100.00;97031.31;5062241;28;20284;-56
2023/10/16 00:15:44;;;;;;;2.83;1.37;;;;;;;7.70;100.00;97029.38;5061763;28;20242;-56
2023/10/16 00:18:13;;;;;;;4.60;1.23;;;;;;;7.71;100.00;97023.19;5062538;28;20202;-57
2023/10/16 00:20:41;;;;;;;1.80;1.50;;;;;;;7.64;100.00;97029.84;5062051;28;20298;-56
2023/10/16 00:23:10;;;;;;;1.93;1.33;;;;;;;7.55;100.00;97025.25;5062370;28;20226;-56
2023/10/16 00:25:39;;;;;;;1.97;1.40;;;;;;;7.52;100.00;97025.50;5061805;28;20566;-56
2023/10/16 00:28:07;;;;;;;1.10;1.00;;;;;;;7.62;100.00;97021.22;5062039;28;20199;-55
2023/10/16 00:30:34;;;;;;;3.07;0.90;;;;;;;7.58;100.00;97017.13;5060920;28;20511;-56
2023/10/16 00:33:04;;;;;;;1.90;1.27;;;;;;;7.48;100.00;97011.72;5062242;28;20223;-57
2023/10/16 00:35:31;;;;;;;3.53;1.40;;;;;;;7.46;100.00;97015.44;5062062;28;20210;-56
2023/10/16 00:37:59;;;;;;;2.17;1.50;;;;;;;7.48;100.00;97013.53;5061657;28;20237;-54
2023/10/16 00:40:36;;;;;;;2.60;1.70;;;;;;;7.51;100.00;97005.41;5061779;28;20242;-54
2023/10/16 00:43:10;;;;;;;3.43;1.40;;;;;;;7.48;100.00;97010.91;5062877;28;20295;-55
2023/10/16 00:45:48;;;;;;;1.70;1.10;;;;;;;7.46;100.00;97011.03;5061979;28;20667;-56
2023/10/16 00:48:17;;;;;;;2.63;1.10;;;;;;;7.46;100.00;97013.66;5062230;28;20211;-55
2023/10/16 00:50:48;;;;;;;2.23;1.40;;;;;;;7.44;100.00;97012.06;5063708;28;20210;-56
2023/10/16 00:53:15;;;;;;;2.30;1.30;;;;;;;7.37;100.00;97005.59;5063829;28;20203;-55
2023/10/16 00:55:42;;;;;;;3.53;1.57;;;;;;;7.36;100.00;97003.94;5062653;28;20200;-56
2023/10/16 00:58:09;;;;;;;2.10;1.30;;;;;;;7.31;100.00;97006.91;5063032;28;20679;-56
2023/10/16 01:00:37;;;;;;;3.03;1.30;;;;;;;7.29;100.00;97005.34;5063995;28;20210;-57
2023/10/16 01:03:05;;;;;;;1.63;1.13;;;;;;;7.27;100.00;97004.59;5061745;28;20206;-57
2023/10/16 01:05:39;;;;;;;2.13;1.63;;;;;;;7.28;100.00;97003.66;5061295;28;20665;-56
2023/10/16 01:08:07;;;;;;;1.73;1.20;;;;;;;7.23;100.00;96995.25;5060818;28;20201;-56
2023/10/16 01:10:36;;;;;;;1.63;1.53;;;;;;;7.18;100.00;96997.41;5062051;28;20206;-55
2023/10/16 01:13:09;;;;;;;2.87;1.53;;;;;;;7.20;100.00;96993.69;5064250;28;20285;-57
2023/10/16 01:15:43;;;;;;;2.17;1.60;;;;;;;7.11;100.00;96993.56;5074453;28;20208;-56
2023/10/16 01:18:11;;;;;;;2.90;1.50;;;;;;;7.18;100.00;96997.41;5073487;28;20206;-56
2023/10/16 01:20:43;;;;;;;1.13;1.13;;;;;;;7.12;100.00;96995.25;5073937;28;20206;-57
2023/10/16 01:23:11;;;;;;;3.90;1.60;;;;;;;7.12;100.00;96990.78;5067149;28;20264;-56
2023/10/16 01:25:38;;;;;;;3.33;1.37;;;;;;;7.12;100.00;96987.34;5061263;28;20206;-56
2023/10/16 01:28:05;;;;;;;1.17;1.07;;;;;;;7.12;100.00;96992.59;5059758;28;20203;-55
2023/10/16 01:30:34;;;;;;;1.90;1.20;;;;;;;7.06;100.00;96991.25;5060902;28;20662;-53
2023/10/16 01:33:00;;;;;;;2.13;1.40;;;;;;;7.03;100.00;96985.38;5061335;28;20210;-56
2023/10/16 01:35:29;;;;;;;3.83;1.23;;;;;;;6.97;100.00;96982.28;5060675;28;20229;-56
2023/10/16 01:37:58;;;;;;;2.57;1.50;;;;;;;6.93;100.00;96978.19;5061091;28;20563;-56
2023/10/16 01:40:26;;;;;;;2.47;1.37;;;;;;;6.88;100.00;96980.28;5060888;28;20289;-54
2023/10/16 01:42:55;;;;;;;1.70;1.30;;;;;;;6.91;100.00;96977.44;5061665;28;20209;-55
2023/10/16 01:45:23;;;;;;;1.87;1.50;;;;;;;6.87;100.00;96981.25;5060849;28;20204;-56
2023/10/16 01:47:50;;;;;;;1.90;1.40;;;;;;;6.85;100.00;96985.78;5061510;28;20255;-54
2023/10/16 01:50:21;;;;;;;2.13;1.50;;;;;;;6.86;100.00;96990.09;5060877;28;20285;-55
2023/10/16 01:52:48;;;;;;;2.97;1.70;;;;;;;6.77;100.00;96974.97;5061544;28;20212;-55
2023/10/16 01:55:17;;;;;;;3.77;1.53;;;;;;;6.76;100.00;96975.09;5060731;28;20215;-56
2023/10/16 01:57:47;;;;;;;2.33;1.47;;;;;;;6.78;100.00;96971.41;5059934;28;20221;-55
2023/10/16 02:00:16;;;;;;;2.27;1.50;;;;;;;6.74;100.00;96966.47;5061046;28;20533;-54
2023/10/16 02:02:43;;;;;;;1.73;1.50;;;;;;;6.77;100.00;96967.09;5061254;28;20218;-56
2023/10/16 02:05:10;;;;;;;1.90;1.23;;;;;;;6.74;100.00;96956.81;5060747;28;20211;-56
2023/10/16 02:07:41;;;;;;;1.70;1.43;;;;;;;6.73;100.00;96956.94;5060555;28;20718;-56
2023/10/16 02:10:11;;;;;;;2.67;1.60;;;;;;;6.71;100.00;96959.66;5060972;28;20206;-56
2023/10/16 02:12:38;;;;;;;1.93;1.40;;;;;;;6.74;100.00;96961.22;5060834;28;20249;-57
2023/10/16 02:15:08;;;;;;;4.27;1.80;;;;;;;6.75;100.00;96942.72;5060711;28;20211;-57
2023/10/16 02:17:38;;;;;;;2.30;1.77;;;;;;;6.73;100.00;96949.88;5061235;28;20299;-56
2023/10/16 02:20:11;;;;;;;2.20;1.30;;;;;;;6.72;100.00;96945.59;5060502;28;20697;-54
2023/10/16 02:22:38;;;;;;;2.07;1.40;;;;;;;6.67;100.00;96939.81;5061569;28;20203;-56
2023/10/16 02:25:08;;;;;;;3.60;1.63;;;;;;;6.66;100.00;96934.69;5061000;28;20199;-55
2023/10/16 02:27:35;;;;;;;1.57;1.47;;;;;;;6.62;100.00;96934.06;5064466;28;20197;-56
2023/10/16 02:30:15;;;;;;;1.63;1.53;;;;;;;6.63;100.00;96938.34;5064852;28;20203;-56
2023/10/16 02:32:43;;;;;;;2.80;1.70;;;;;;;6.61;100.00;96935.00;5061408;28;20194;-55
2023/10/16 02:35:13;;;;;;;2.00;1.40;;;;;;;6.59;100.00;96929.00;5066695;28;20226;-55
2023/10/16 02:37:41;;;;;;;2.03;1.30;;;;;;;6.60;100.00;96921.97;5076598;28;20227;-54
2023/10/16 02:40:11;;;;;;;4.13;1.50;;;;;;;6.61;100.00;96919.25;5080560;28;20207;-56
2023/10/16 02:42:41;;;;;;;2.80;1.53;;;;;;;6.61;100.00;96921.88;5080337;28;20214;-55
2023/10/16 02:45:18;;;;;;;3.97;1.70;;;;;;;6.57;100.00;96917.78;5077147;28;20198;-56
2023/10/16 02:47:46;;;;;;;2.60;1.63;;;;;;;6.67;100.00;96921.41;5078499;28;20210;-56
2023/10/16 02:50:14;;;;;;;2.20;1.80;;;;;;;6.62;100.00;96922.72;5076884;28;20223;-56
2023/10/16 02:52:41;;;;;;;2.00;1.70;;;;;;;6.64;100.00;96916.38;5076032;28;20672;-55
2023/10/16 02:55:10;;;;;;;3.03;1.77;;;;;;;6.66;100.00;96916.28;5071376;28;20290;-55
2023/10/16 02:57:40;;;;;;;6.33;1.60;;;;;;;6.69;100.00;96914.28;5069190;28;20675;-58
2023/10/16 03:00:15;;;;;;;2.40;1.63;;;;;;;6.63;100.00;96917.31;5062849;28;20299;-55
2023/10/16 03:02:42;;;;;;;2.83;1.70;;;;;;;6.70;100.00;96918.56;5069492;28;20195;-56
2023/10/16 03:05:11;;;;;;;4.70;1.60;;;;;;;6.74;100.00;96916.53;5068008;28;20233;-54
2023/10/16 03:07:39;;;;;;;3.40;1.60;;;;;;;6.80;100.00;96916.13;5068779;28;20191;-55
2023/10/16 03:10:08;;;;;;;1.60;1.27;;;;;;;6.84;100.00;96912.28;5069383;28;20212;-55
2023/10/16 03:12:36;;;;;;;2.23;1.40;;;;;;;6.84;100.00;96917.53;5069233;28;20230;-56
2023/10/16 03:15:13;;;;;;;2.03;1.83;;;;;;;6.75;100.00;96913.81;5070839;28;20203;-55
2023/10/16 03:17:41;;;;;;;3.37;1.67;;;;;;;6.76;100.00;96909.41;5070248;28;20219;-56
2023/10/16 03:20:19;;;;;;;3.33;2.20;;;;;;;6.71;100.00;96909.72;5070122;28;20268;-55
2023/10/16 03:22:47;;;;;;;2.03;1.70;;;;;;;6.72;100.00;96915.84;5072873;28;20207;-55
2023/10/16 03:25:25;;;;;;;4.13;1.70;;;;;;;6.66;100.00;96913.66;5074375;28;20207;-55
2023/10/16 03:27:51;;;;;;;4.53;1.50;;;;;;;6.54;100.00;96912.75;5072786;28;20283;-56
2023/10/16 03:30:20;;;;;;;1.83;1.70;;;;;;;6.51;100.00;96910.38;5070133;28;20217;-55
2023/10/16 03:32:47;;;;;;;4.50;1.80;;;;;;;6.49;100.00;96912.25;5070333;28;20231;-56
2023/10/16 03:35:21;;;;;;;1.93;1.60;;;;;;;6.47;100.00;96904.50;5070822;28;20207;-54
2023/10/16 03:37:49;;;;;;;2.73;1.83;;;;;;;6.29;100.00;96910.22;5071339;28;20271;-56
2023/10/16 03:40:19;;;;;;;2.60;1.87;;;;;;;6.13;100.00;96915.72;5070372;28;20229;-55
2023/10/16 03:42:46;;;;;;;3.43;1.53;;;;;;;6.08;100.00;96911.75;5068431;28;20207;-56
2023/10/16 03:45:13;;;;;;;2.33;1.40;;;;;;;6.06;100.00;96918.91;5077633;28;20209;-56
2023/10/16 03:47:41;;;;;;;1.83;1.60;;;;;;;6.06;100.00;96921.53;5068306;28;20225;-56
2023/10/16 03:50:09;;;;;;;2.13;1.77;;;;;;;6.01;100.00;96919.22;5069743;28;20195;-56
2023/10/16 03:52:36;;;;;;;2.63;1.77;;;;;;;6.02;100.00;96914.81;5066773;28;20206;-55
2023/10/16 03:55:20;;;;;;;1.67;1.57;;;;;;;5.96;100.00;96914.31;5062763;28;20206;-55
2023/10/16 03:57:50;;;;;;;1.53;1.20;;;;;;;5.95;100.00;96919.69;5062634;28;20218;-55
2023/10/16 04:00:18;;;;;;;3.30;1.80;;;;;;;5.97;100.00;96916.00;5078718;28;20264;-56
2023/10/16 04:02:46;;;;;;;2.70;1.53;;;;;;;5.91;100.00;96915.59;5078863;28;20233;-55
2023/10/16 04:05:29;;;;;;;2.63;1.70;;;;;;;5.89;100.00;96915.69;5076533;28;20199;-55
2023/10/16 04:07:57;;;;;;;3.40;1.63;;;;;;;5.90;100.00;96914.75;5078173;28;20194;-56
2023/10/16 04:10:28;;;;;;;2.37;1.80;;;;;;;5.78;100.00;96905.06;5062484;28;20221;-56
2023/10/16 04:12:55;;;;;;;2.73;1.87;;;;;;;5.79;100.00;96912.00;5062797;28;20198;-57
2023/10/16 04:15:50;;;;;;;1.80;1.30;;;;;;;5.78;100.00;96904.22;5062370;28;20206;-55
2023/10/16 04:18:27;;;;;;;2.40;2.03;;;;;;;5.79;100.00;96905.91;5061958;28;20255;-55
2023/10/16 04:21:08;;;;;;;2.00;1.90;;;;;;;5.77;100.00;96913.91;5046854;28;20199;-56
2023/10/16 04:23:37;;;;;;;3.50;1.93;;;;;;;5.73;100.00;96901.94;5063672;28;20226;-56
2023/10/16 04:31:44;;;;;;;2.27;1.67;;;;;;;5.65;100.00;96898.16;5061886;28;20209;-56
2023/10/16 04:34:24;;;;;;;2.03;1.43;;;;;;;5.70;100.00;96891.66;5062522;28;20260;-56
2023/10/16 04:36:53;;;;;;;3.53;2.10;;;;;;;5.64;100.00;96892.06;5062039;28;20198;-55
2023/10/16 04:47:41;;;;;;;2.27;1.60;;;;;;;5.52;100.00;96882.44;4995878;28;20316;-55
2023/10/16 04:50:09;;;;;;;2.93;1.90;;;;;;;5.57;100.00;96882.09;5061135;28;20205;-55
2023/10/16 04:55:52;;;;;;;5.27;2.03;;;;;;;5.62;100.00;96880.00;5054035;28;20263;-56
2023/10/16 05:01:22;;;;;;;5.13;2.20;;;;;;;5.56;100.00;96881.28;5057406;28;20336;-56
2023/10/16 05:04:24;;;;;;;4.60;1.97;;;;;;;5.60;100.00;96874.03;5061500;28;20198;-56
2023/10/16 05:06:52;;;;;;;2.20;1.50;;;;;;;5.53;100.00;96881.47;5061113;28;20199;-56
2023/10/16 06:15:37;;;;;;;4.20;2.60;;;;;;;5.61;100.00;96884.41;5064625;28;20335;-55
2023/10/16 06:18:06;;;;;;;10.53;3.13;;;;;;;5.68;100.00;96888.28;5064606;28;20544;-54
2023/10/16 06:20:37;;;;;;;5.80;2.93;;;;;;;5.63;100.00;96887.78;5064674;28;20199;-56
2023/10/16 06:23:04;;;;;;;7.33;2.80;;;;;;;5.72;100.00;96889.75;5064649;28;20215;-54
2023/10/16 06:25:35;;;;;;;15.57;5.50;;;;;;;5.71;100.00;96893.31;5064529;28;20221;-55
2023/10/16 06:28:08;;;;;;;7.13;3.97;;;;;;;5.78;100.00;96899.81;5064650;28;20213;-54
2023/10/16 06:30:37;;;;;;;7.37;3.23;;;;;;;5.81;100.00;96894.34;5063453;28;20227;-55
2023/10/16 06:33:06;;;;;;;6.77;2.90;;;;;;;5.87;100.00;96896.59;5064255;28;20217;-55
2023/10/16 06:35:32;;;;;;;3.37;2.80;;;;;;;5.92;100.00;96901.50;5064733;28;20202;-54
2023/10/16 06:38:00;;;;;;;6.47;3.13;;;;;;;5.97;100.00;96900.25;5065093;28;20233;-54
2023/10/16 06:40:27;;;;;;;3.53;2.63;;;;;;;6.10;100.00;96892.31;5065738;28;20257;-54
2023/10/16 06:43:09;;;;;;;4.07;2.60;;;;;;;6.11;100.00;96901.03;5065956;28;20631;-55
2023/10/16 06:45:41;;;;;;;3.57;2.50;;;;;;;6.18;100.00;96887.38;5064628;28;20202;-55
2023/10/16 06:48:14;;;;;;;2.77;2.20;;;;;;;6.25;100.00;96885.13;5065065;28;20206;-54
2023/10/16 06:50:45;;;;;;;2.63;2.07;;;;;;;6.17;100.00;96887.47;5064399;28;20222;-56
2023/10/16 06:53:12;;;;;;;4.43;2.63;;;;;;;6.26;100.00;96898.16;5064684;28;20235;-55
2023/10/16 06:55:39;;;;;;;2.70;2.40;;;;;;;6.39;100.00;96884.97;5065052;28;20315;-55
2023/10/16 06:58:06;;;;;;;2.70;2.50;;;;;;;6.38;100.00;96883.28;5064419;28;20227;-56
2023/10/16 07:00:33;;;;;;;4.43;2.93;;;;;;;6.48;100.00;96893.00;5064396;28;20195;-55
2023/10/16 07:03:02;;;;;;;3.50;2.60;;;;;;;6.60;100.00;96895.69;5064667;28;20214;-56
2023/10/16 07:05:42;;;;;;;3.83;2.80;;;;;;;6.71;100.00;96893.97;5064051;28;20830;-55
2023/10/16 07:08:09;;;;;;;3.83;2.87;;;;;;;6.81;100.00;96896.75;5064712;28;20210;-55
2023/10/16 07:10:36;;;;;;;6.87;3.03;;;;;;;6.87;100.00;96891.84;5064368;28;20207;-56
2023/10/16 07:13:03;;;;;;;6.00;3.40;;;;;;;6.96;100.00;96898.22;5063668;28;20517;-55
2023/10/16 07:15:30;;;;;;;3.77;3.07;;;;;;;7.18;100.00;96905.34;5064160;28;20206;-54
2023/10/16 07:18:02;;;;;;;2.97;2.67;;;;;;;7.18;100.00;96902.72;5063145;28;20558;-55
2023/10/16 07:20:30;;;;;;;2.90;2.70;;;;;;;7.21;100.00;96902.50;5063575;28;20195;-55
2023/10/16 07:22:59;;;;;;;3.97;3.00;;;;;;;7.30;100.00;96905.25;5063325;28;20209;-55
2023/10/16 07:25:37;;;;;;;3.67;3.03;;;;;;;7.36;100.00;96910.06;5062137;28;20485;-55
2023/10/16 07:28:08;;;;;;;3.60;2.88;;;;;;;7.40;100.00;96910.66;5063797;28;20486;-56
2023/10/16 07:30:35;;;;;;;2.53;2.33;;;;;;;7.37;100.00;96903.81;5064369;28;20245;-55
2023/10/16 07:33:02;;;;;;;6.30;3.00;;;;;;;7.47;100.00;96901.34;5063443;28;20624;-55
2023/10/16 07:35:28;;;;;;;2.47;2.27;;;;;;;7.47;100.00;96901.34;5062529;28;20484;-55
2023/10/16 07:37:58;;;;;;;2.30;2.13;;;;;;;7.51;100.00;96908.03;5065281;28;20235;-55
2023/10/16 07:40:25;;;;;;;3.37;2.57;;;;;;;7.53;100.00;96900.03;5063983;28;20653;-55
2023/10/16 07:42:52;;;;;;;6.53;2.80;;;;;;;7.57;100.00;96902.31;5064824;28;20210;-55
2023/10/16 07:45:19;;;;;;;3.13;2.83;;;;;;;7.58;100.00;96898.72;5062771;28;20531;-55
2023/10/16 07:47:48;;;;;;;3.30;3.00;;;;;;;7.67;100.00;96897.16;5064694;28;20207;-55
2023/10/16 07:50:15;;;;;;;4.07;2.60;;;;;;;7.69;100.00;96897.88;5063305;28;20203;-56
2023/10/16 07:52:42;;;;;;;3.23;2.77;;;;;;;7.72;100.00;96898.47;5063521;28;20206;-55
2023/10/16 07:55:18;;;;;;;3.13;2.83;;;;;;;7.61;100.00;96887.97;5062862;28;20644;-55
2023/10/16 07:57:44;;;;;;;2.90;2.60;;;;;;;7.63;100.00;96891.31;5063014;28;20231;-55
2023/10/16 08:00:14;;;;;;;3.03;2.70;;;;;;;7.69;100.00;96898.72;5065219;28;20552;-55
2023/10/16 08:02:45;;;;;;;3.10;2.80;;;;;;;7.64;100.00;96898.25;5063211;28;20207;-55
2023/10/16 08:05:15;;;;;;;4.07;2.77;;;;;;;7.72;100.00;96901.09;5063289;28;20874;-54
2023/10/16 08:07:47;;;;;;;3.67;3.03;;;;;;;7.81;100.00;96899.56;5065608;28;20644;-56
2023/10/16 08:10:40;;;;;;;4.50;3.10;;;;;;;7.88;100.00;96900.75;5070414;28;20199;-56
2023/10/16 08:13:11;;;;;;;6.70;3.50;;;;;;;7.94;100.00;96906.38;5064220;28;20238;-55
2023/10/16 08:15:37;;;;;;;4.57;3.10;;;;;;;7.92;100.00;96896.94;5062583;28;20194;-56
2023/10/16 08:18:07;;;;;;;3.73;3.13;;;;;;;7.83;100.00;96893.22;5062007;28;20235;-55
2023/10/16 08:20:49;;;;;;;4.97;2.93;;;;;;;7.86;100.00;96898.25;5061881;28;20202;-56
2023/10/16 08:23:15;;;;;;;4.83;3.17;;;;;;;8.02;100.00;96895.25;5062308;28;20639;-55
2023/10/16 08:25:43;;;;;;;4.17;3.00;;;;;;;8.11;100.00;96898.97;5061930;28;20202;-54
2023/10/16 08:28:22;;;;;;;3.20;2.90;;;;;;;8.17;100.00;96901.09;5063415;28;20210;-55
2023/10/16 08:30:56;;;;;;;7.17;3.20;;;;;;;8.21;100.00;96902.53;5064539;28;20281;-53
2023/10/16 08:33:32;;;;;;;6.23;3.17;;;;;;;8.29;100.00;96892.25;5065260;28;20213;-56
2023/10/16 08:35:59;;;;;;;2.97;2.77;;;;;;;8.48;100.00;96900.34;5064555;28;20202;-55
2023/10/16 08:38:26;;;;;;;4.47;3.10;;;;;;;8.50;100.00;96901.09;5068155;28;20226;-55
2023/10/16 08:41:07;;;;;;;3.23;2.80;;;;;;;8.62;100.00;96907.97;5069566;28;20200;-55
2023/10/16 08:43:52;;;;;;;3.30;2.63;;;;;;;8.59;99.01;96902.97;5068838;28;20206;-54
2023/10/16 08:46:30;;;;;;;5.37;2.73;;;;;;;8.61;98.48;96908.94;5065546;28;20202;-54
2023/10/16 08:48:57;;;;;;;2.60;2.40;;;;;;;8.65;98.11;96897.19;5063505;28;20200;-55
2023/10/16 08:51:28;;;;;;;3.07;2.77;;;;;;;8.73;98.00;96904.47;5062803;28;20199;-54
2023/10/16 08:53:59;;;;;;;4.37;2.83;;;;;;;8.79;100.00;96910.06;5068068;28;20199;-55
2023/10/16 08:56:28;;;;;;;3.97;3.10;;;;;;;8.93;100.00;96891.31;5065406;28;20252;-55
2023/10/16 08:58:55;;;;;;;3.37;2.37;;;;;;;9.22;97.07;96899.44;5064095;28;20226;-56
2023/10/16 09:01:23;;;;;;;3.07;2.40;;;;;;;9.45;94.40;96893.09;5070568;28;20211;-55
2023/10/16 09:03:54;;;;;;;2.93;2.50;;;;;;;9.36;93.63;96890.34;5063487;28;20203;-55
2023/10/16 09:06:22;;;;;;;3.73;2.67;;;;;;;9.47;92.89;96900.84;5065529;28;20620;-53
2023/10/16 09:08:49;;;;;;;2.40;2.20;;;;;;;9.84;92.53;96891.47;5067088;28;20237;-54
2023/10/16 09:11:16;;;;;;;2.50;2.30;;;;;;;10.24;91.32;96888.84;5074148;28;20237;-55
2023/10/16 09:13:50;;;;;;;3.27;2.50;;;;;;;10.32;88.62;96882.88;5078464;28;20199;-55
2023/10/16 09:16:20;;;;;;;5.93;2.60;;;;;;;10.53;88.51;96891.56;5077166;28;20649;-55
2023/10/16 09:18:48;;;;;;;2.87;2.57;;;;;;;10.60;85.65;96886.56;5077247;28;20281;-55
2023/10/16 09:21:22;;;;;;;4.60;2.57;;;;;;;10.75;85.12;96886.03;5063117;28;20634;-55
2023/10/16 09:23:52;;;;;;;2.90;2.40;;;;;;;10.83;85.09;96880.88;5063585;28;20199;-54
2023/10/16 09:26:19;;;;;;;2.50;2.30;;;;;;;11.19;84.77;96878.50;5062999;28;20198;-55
2023/10/16 09:28:49;;;;;;;2.80;2.30;;;;;;;11.44;81.21;96891.16;5065904;28;20191;-55
2023/10/16 09:31:18;;;;;;;2.60;2.40;;;;;;;11.64;83.19;96884.00;5074421;28;20686;-55
2023/10/16 09:33:45;;;;;;;2.93;2.53;;;;;;;11.66;79.41;96887.31;5066979;28;20207;-55
2023/10/16 09:36:21;;;;;;;3.27;1.97;;;;;;;11.89;79.17;96880.75;5064368;28;20222;-54
2023/10/16 09:38:51;;;;;;;3.90;2.20;;;;;;;12.29;78.91;96869.81;5070486;28;20332;-54
2023/10/16 09:44:09;;;;;;;4.03;2.30;;;;;;;12.58;76.91;96866.97;5069563;28;20221;-54
2023/10/16 09:46:52;;;;;;;2.07;1.97;;;;;;;12.58;74.86;96859.84;5069729;28;20251;-56
2023/10/16 09:49:22;;;;;;;3.20;2.00;;;;;;;12.74;72.78;96859.19;5067580;28;20287;-54
2023/10/16 09:51:49;;;;;;;2.97;1.90;;;;;;;12.66;72.74;96862.59;5061077;28;20275;-55
2023/10/16 09:54:15;;;;;;;3.43;2.30;;;;;;;12.63;73.00;96854.94;5061563;28;20211;-54
2023/10/16 09:56:45;;;;;;;2.00;1.80;;;;;;;13.20;73.37;96855.47;5060988;28;20211;-54
2023/10/16 09:59:26;;;;;;;3.03;2.07;;;;;;;13.34;70.20;96863.72;5061603;28;20292;-54
2023/10/16 10:01:55;;;;;;;3.50;2.10;;;;;;;13.42;71.42;96853.16;5061353;28;20289;-55
2023/10/16 10:04:24;;;;;;;1.90;1.80;;;;;;;13.89;70.91;96858.91;5061730;28;20517;-54
2023/10/16 10:06:55;;;;;;;2.63;2.10;;;;;;;14.00;70.27;96856.97;5060234;28;20203;-54
2023/10/16 10:09:40;;;;;;;3.47;1.80;;;;;;;13.95;66.55;96853.00;5061752;28;20195;-53
2023/10/16 10:12:13;;;;;;;2.83;1.73;;;;;;;14.37;69.20;96850.38;5060507;28;20582;-56
2023/10/16 10:14:48;;;;;;;2.22;1.77;;;;;;;14.47;67.15;96842.25;5061031;28;20198;-54
2023/10/16 10:17:19;;;;;;;2.35;1.83;;;;;;;14.67;66.96;96838.28;5061197;28;20212;-56
2023/10/16 10:19:54;;;;;;;2.53;1.60;;;;;;;14.93;66.16;96836.34;5060536;28;20233;-55
2023/10/16 10:22:27;;;;;;;1.80;1.65;;;;;;;15.54;62.33;96839.50;5060729;28;20587;-53
2023/10/16 10:25:09;;;;;;;3.22;1.60;;;;;;;15.96;61.07;96842.75;5060801;28;20190;-54
2023/10/16 10:27:41;;;;;;;2.00;1.80;;;;;;;16.08;59.47;96835.22;5063573;28;20198;-56
2023/10/16 10:30:14;;;;;;;2.63;1.90;;;;;;;15.74;60.61;96825.63;5075732;28;20679;-55
2023/10/16 10:32:41;;;;;;;2.22;1.90;;;;;;;16.63;57.54;96825.28;5073446;28;20182;-55
2023/10/16 10:35:21;;;;;;;3.28;1.63;;;;;;;16.66;57.42;96822.28;5060780;28;20218;-55
2023/10/16 10:37:48;;;;;;;3.85;1.63;;;;;;;16.65;56.90;96817.94;5061670;28;20203;-55
2023/10/16 10:40:21;;;;;;;2.03;1.83;;;;;;;17.15;55.93;96822.75;5060918;28;20242;-54
2023/10/16 10:42:53;;;;;;;2.00;1.85;;;;;;;17.42;57.33;96813.34;5060570;28;20636;-57
2023/10/16 10:45:33;;;;;;;2.97;1.90;;;;;;;17.72;53.97;96811.56;5061775;28;21220;-56
2023/10/16 10:48:06;;;;;;;1.90;1.80;;;;;;;17.92;54.79;96812.69;5062399;28;20198;-55
2023/10/16 10:50:33;;;;;;;2.28;1.65;;;;;;;17.89;53.81;96811.19;5061704;28;20205;-55
2023/10/16 10:53:03;;;;;;;1.92;1.77;;;;;;;18.50;53.37;96802.91;5061581;28;20514;-55
2023/10/16 10:55:29;;;;;;;1.98;1.77;;;;;;;19.39;51.93;96802.41;5060888;28;20195;-54
2023/10/16 10:57:58;;;;;;;2.20;1.85;;;;;;;19.19;50.21;96796.88;5061045;28;20643;-57
2023/10/16 11:00:45;;;;;;;1.60;1.50;;;;;;;18.61;49.00;96791.75;5065369;28;20227;-56
2023/10/16 11:03:22;;;;;;;3.25;1.60;;;;;;;18.56;49.60;96784.31;5065828;28;20281;-57
2023/10/16 11:05:50;;;;;;;2.95;1.67;;;;;;;18.60;49.02;96784.75;5064872;28;20202;-54
2023/10/16 11:08:25;;;;;;;1.77;1.52;;;;;;;19.17;47.89;96790.88;5065292;28;20234;-56
2023/10/16 11:10:52;;;;;;;2.15;1.63;;;;;;;19.20;49.52;96779.75;5064364;28;20213;-55
2023/10/16 11:13:21;;;;;;;3.05;1.65;;;;;;;18.56;50.34;96783.47;5064455;28;20711;-57
2023/10/16 11:15:52;;;;;;;1.77;1.67;;;;;;;18.58;51.38;96766.19;5065657;28;20199;-54
2023/10/16 11:18:19;;;;;;;1.63;1.52;;;;;;;18.65;50.29;96769.75;5065765;28;20218;-55
2023/10/16 11:20:46;;;;;;;2.38;1.77;;;;;;;18.78;50.38;96767.19;5064202;28;20502;-56
2023/10/16 11:23:14;;;;;;;1.83;1.67;;;;;;;19.09;49.88;96752.66;5065361;28;20747;-54
2023/10/16 11:25:44;;;;;;;2.55;1.30;;;;;;;18.79;48.59;96742.06;5063612;28;20190;-56
2023/10/16 11:28:13;;;;;;;3.08;1.58;;;;;;;19.16;47.94;96742.81;5063639;28;20211;-55
2023/10/16 11:30:39;;;;;;;2.28;1.70;;;;;;;18.71;49.68;96744.88;5063118;28;20727;-55
2023/10/16 11:33:09;;;;;;;3.17;1.75;;;;;;;18.74;51.78;96743.69;5063470;28;20199;-54
2023/10/16 11:35:35;;;;;;;2.60;1.70;;;;;;;18.88;49.38;96735.56;5062959;28;20217;-56
2023/10/16 11:38:13;;;;;;;3.00;1.90;;;;;;;18.52;50.32;96732.13;5063449;28;20203;-54
2023/10/16 11:40:42;;;;;;;2.03;1.73;;;;;;;17.99;49.91;96721.81;5063647;28;20210;-56
2023/10/16 11:43:11;;;;;;;2.83;1.90;;;;;;;18.40;50.36;96721.03;5063423;28;20265;-55
2023/10/16 11:45:38;;;;;;;2.92;1.95;;;;;;;18.13;51.05;96712.91;5061824;28;20210;-56
2023/10/16 11:48:24;;;;;;;1.50;1.40;;;;;;;17.78;51.14;96717.22;5063330;28;20223;-56
2023/10/16 11:50:51;;;;;;;4.35;1.55;;;;;;;17.17;51.92;96721.03;5062737;28;20231;-53
2023/10/16 11:53:23;;;;;;;1.80;1.70;;;;;;;17.20;54.18;96718.00;5063205;28;20359;-56
2023/10/16 11:55:50;;;;;;;4.28;1.83;;;;;;;16.83;52.75;96708.13;5063153;28;20203;-54
2023/10/16 11:58:17;;;;;;;4.53;1.70;;;;;;;16.52;55.67;96713.53;5063220;28;20210;-54
2023/10/16 12:00:53;;;;;;;5.53;1.95;;;;;;;16.51;55.68;96714.53;5063136;28;20312;-55
2023/10/16 12:03:23;;;;;;;1.63;1.52;;;;;;;16.26;56.60;96705.06;5062685;28;20303;-56
2023/10/16 12:05:50;;;;;;;2.13;1.90;;;;;;;15.90;57.37;96699.44;5062522;28;20837;-55
2023/10/16 12:08:18;;;;;;;2.17;1.88;;;;;;;15.89;59.78;96689.75;5062827;28;20211;-55
2023/10/16 12:10:46;;;;;;;3.72;1.67;;;;;;;15.94;59.57;96682.88;5061588;28;20627;-55
2023/10/16 12:13:13;;;;;;;2.10;2.00;;;;;;;15.70;57.95;96682.16;5062990;28;20207;-55
2023/10/16 12:15:40;;;;;;;2.33;2.03;;;;;;;15.71;58.10;96679.34;5062723;28;20206;-55
2023/10/16 12:18:09;;;;;;;2.20;1.80;;;;;;;15.37;58.87;96662.81;5062062;28;20588;-55
2023/10/16 12:20:37;;;;;;;2.28;1.83;;;;;;;15.59;60.35;96662.06;5061937;28;20234;-55
2023/10/16 12:23:05;;;;;;;3.13;1.65;;;;;;;15.59;62.81;96658.59;5061941;28;20297;-56
2023/10/16 12:25:34;;;;;;;2.20;1.63;;;;;;;15.84;61.38;96652.09;5062304;28;20885;-56
2023/10/16 12:28:01;;;;;;;3.70;2.10;;;;;;;15.80;63.92;96656.94;5063133;28;20199;-55
2023/10/16 12:30:28;;;;;;;2.70;1.75;;;;;;;15.74;64.42;96652.31;5063490;28;21456;-54
2023/10/16 12:32:55;;;;;;;3.60;1.85;;;;;;;15.90;62.44;96646.91;5066071;28;20643;-54
2023/10/16 12:35:22;;;;;;;2.25;1.60;;;;;;;15.71;61.90;96642.00;5065659;28;20783;-54
2023/10/16 12:37:55;;;;;;;2.00;1.75;;;;;;;15.84;59.85;96641.44;5070367;28;20219;-54
2023/10/16 12:40:34;;;;;;;1.50;1.40;;;;;;;15.90;60.10;96635.41;5068704;28;20556;-54
2023/10/16 12:43:01;;;;;;;3.15;1.88;;;;;;;15.60;61.55;96629.06;5076436;28;20178;-53
2023/10/16 12:45:29;;;;;;;2.20;1.92;;;;;;;15.80;62.87;96624.16;5068727;28;20269;-55
2023/10/16 12:47:56;;;;;;;2.65;1.80;;;;;;;15.70;58.28;96616.34;5063928;28;20262;-54
2023/10/16 12:50:24;;;;;;;2.00;1.60;;;;;;;15.69;58.15;96628.03;5063096;28;20205;-54
2023/10/16 12:52:52;;;;;;;2.05;1.55;;;;;;;15.67;58.81;96614.03;5062975;28;20191;-55
2023/10/16 12:55:19;;;;;;;1.85;1.63;;;;;;;15.63;62.07;96615.38;5064414;28;20222;-54
2023/10/16 12:57:48;;;;;;;1.55;1.42;;;;;;;15.67;61.57;96618.53;5063355;28;20195;-54
2023/10/16 13:00:16;;;;;;;2.38;1.77;;;;;;;15.60;60.22;96618.41;5062043;28;20313;-53
2023/10/16 13:02:45;;;;;;;2.35;1.50;;;;;;;15.43;59.59;96606.97;5062052;28;20296;-55
2023/10/16 13:05:13;;;;;;;3.33;1.65;;;;;;;15.38;60.52;96611.97;5062059;28;20211;-54
2023/10/16 13:07:41;;;;;;;2.10;1.90;;;;;;;15.33;58.33;96610.84;5061925;28;20533;-53
2023/10/16 13:10:14;;;;;;;1.42;1.33;;;;;;;15.33;59.33;96611.69;5061566;28;20203;-55
2023/10/16 13:12:41;;;;;;;3.50;1.45;;;;;;;15.42;58.73;96612.47;5062039;28;20234;-54
2023/10/16 13:15:09;;;;;;;3.03;1.77;;;;;;;15.36;59.49;96610.50;5061179;28;20677;-52
2023/10/16 13:17:36;;;;;;;1.73;1.63;;;;;;;15.33;59.65;96610.84;5061582;28;20316;-56